sensor_id;sensor_type;location;lat;lon;timestamp;P1;durP1;ratioP1;P2;durP2;ratioP2
17814;SDS011;9031;50.974;11.330;2023-06-10T00:01:50;7.30;;;6.60;;
17814;SDS011;9031;50.974;11.330;2023-06-10T00:04:15;7.43;;;6.73;;
17814;SDS011;9031;50.974;11.330;2023-06-10T00:06:44;9.00;;;7.03;;
17814;SDS011;9031;50.974;11.330;2023-06-10T00:09:10;8.63;;;7.57;;
17814;SDS011;9031;50.974;11.330;2023-06-10T00:11:35;7.73;;;7.00;;
17814;SDS011;9031;50.974;11.330;2023-06-10T00:14:02;8.20;;;7.40;;
17814;SDS011;9031;50.974;11.330;2023-06-10T00:16:28;7.80;;;7.00;;
17814;SDS011;9031;50.974;11.330;2023-06-10T00:18:54;9.83;;;7.20;;
17814;SDS011;9031;50.974;11.330;2023-06-10T00:21:30;7.70;;;6.50;;
17814;SDS011;9031;50.974;11.330;2023-06-10T00:24:05;8.40;;;7.53;;
17814;SDS011;9031;50.974;11.330;2023-06-10T00:26:31;8.10;;;7.27;;
17814;SDS011;9031;50.974;11.330;2023-06-10T00:28:58;9.43;;;8.07;;
17814;SDS011;9031;50.974;11.330;2023-06-10T00:31:27;7.87;;;7.07;;
17814;SDS011;9031;50.974;11.330;2023-06-10T00:33:52;10.50;;;6.97;;
17814;SDS011;9031;50.974;11.330;2023-06-10T00:36:18;8.00;;;7.20;;
17814;SDS011;9031;50.974;11.330;2023-06-10T00:38:44;7.50;;;6.70;;
17814;SDS011;9031;50.974;11.330;2023-06-10T00:41:09;8.10;;;6.77;;
17814;SDS011;9031;50.974;11.330;2023-06-10T00:43:35;8.10;;;7.07;;
17814;SDS011;9031;50.974;11.330;2023-06-10T00:46:00;8.23;;;6.97;;
17814;SDS011;9031;50.974;11.330;2023-06-10T00:48:26;6.80;;;6.07;;
17814;SDS011;9031;50.974;11.330;2023-06-10T00:50:52;7.97;;;7.27;;
17814;SDS011;9031;50.974;11.330;2023-06-10T00:53:18;7.43;;;6.63;;
17814;SDS011;9031;50.974;11.330;2023-06-10T00:55:45;8.57;;;6.80;;
17814;SDS011;9031;50.974;11.330;2023-06-10T00:58:11;7.40;;;6.70;;
17814;SDS011;9031;50.974;11.330;2023-06-10T01:00:37;7.63;;;6.93;;
17814;SDS011;9031;50.974;11.330;2023-06-10T01:03:03;6.70;;;6.10;;
17814;SDS011;9031;50.974;11.330;2023-06-10T01:05:32;7.37;;;6.30;;
17814;SDS011;9031;50.974;11.330;2023-06-10T01:10:38;8.03;;;6.40;;
17814;SDS011;9031;50.974;11.330;2023-06-10T01:13:09;9.83;;;6.43;;
17814;SDS011;9031;50.974;11.330;2023-06-10T01:15:39;6.70;;;6.10;;
17814;SDS011;9031;50.974;11.330;2023-06-10T01:18:05;8.30;;;6.03;;
17814;SDS011;9031;50.974;11.330;2023-06-10T01:20:40;7.07;;;6.00;;
17814;SDS011;9031;50.974;11.330;2023-06-10T01:23:08;7.67;;;6.00;;
17814;SDS011;9031;50.974;11.330;2023-06-10T01:25:36;9.03;;;6.10;;
17814;SDS011;9031;50.974;11.330;2023-06-10T01:30:50;8.87;;;6.50;;
17814;SDS011;9031;50.974;11.330;2023-06-10T01:33:37;7.33;;;6.03;;
17814;SDS011;9031;50.974;11.330;2023-06-10T01:36:06;7.97;;;6.47;;
17814;SDS011;9031;50.974;11.330;2023-06-10T01:38:33;6.60;;;5.87;;
17814;SDS011;9031;50.974;11.330;2023-06-10T01:41:04;7.63;;;6.40;;
17814;SDS011;9031;50.974;11.330;2023-06-10T01:43:34;7.33;;;6.70;;
17814;SDS011;9031;50.974;11.330;2023-06-10T01:46:00;8.63;;;6.20;;
17814;SDS011;9031;50.974;11.330;2023-06-10T01:48:26;7.30;;;6.60;;
17814;SDS011;9031;50.974;11.330;2023-06-10T01:50:52;6.90;;;6.20;;
17814;SDS011;9031;50.974;11.330;2023-06-10T01:53:18;6.47;;;5.80;;
17814;SDS011;9031;50.974;11.330;2023-06-10T01:55:44;6.83;;;6.00;;
17814;SDS011;9031;50.974;11.330;2023-06-10T01:58:09;7.70;;;6.03;;
17814;SDS011;9031;50.974;11.330;2023-06-10T02:00:35;9.53;;;5.70;;
17814;SDS011;9031;50.974;11.330;2023-06-10T02:03:00;6.40;;;5.70;;
17814;SDS011;9031;50.974;11.330;2023-06-10T02:05:26;8.50;;;5.80;;
17814;SDS011;9031;50.974;11.330;2023-06-10T02:07:51;6.13;;;5.53;;
17814;SDS011;9031;50.974;11.330;2023-06-10T02:10:17;7.40;;;5.93;;
17814;SDS011;9031;50.974;11.330;2023-06-10T02:12:42;5.70;;;5.20;;
17814;SDS011;9031;50.974;11.330;2023-06-10T02:15:08;6.43;;;5.73;;
17814;SDS011;9031;50.974;11.330;2023-06-10T02:17:33;7.40;;;5.70;;
17814;SDS011;9031;50.974;11.330;2023-06-10T02:19:59;7.63;;;5.90;;
17814;SDS011;9031;50.974;11.330;2023-06-10T02:22:29;10.43;;;6.70;;
17814;SDS011;9031;50.974;11.330;2023-06-10T02:24:54;7.07;;;6.07;;
17814;SDS011;9031;50.974;11.330;2023-06-10T02:27:20;7.07;;;6.30;;
17814;SDS011;9031;50.974;11.330;2023-06-10T02:29:46;7.00;;;6.30;;
17814;SDS011;9031;50.974;11.330;2023-06-10T02:32:11;7.13;;;6.03;;
17814;SDS011;9031;50.974;11.330;2023-06-10T02:34:37;6.80;;;6.17;;
17814;SDS011;9031;50.974;11.330;2023-06-10T02:37:02;6.10;;;5.50;;
17814;SDS011;9031;50.974;11.330;2023-06-10T02:39:28;7.47;;;6.77;;
17814;SDS011;9031;50.974;11.330;2023-06-10T02:41:54;6.33;;;5.70;;
17814;SDS011;9031;50.974;11.330;2023-06-10T02:44:19;7.13;;;6.43;;
17814;SDS011;9031;50.974;11.330;2023-06-10T02:46:45;6.37;;;5.40;;
17814;SDS011;9031;50.974;11.330;2023-06-10T02:49:11;6.57;;;5.90;;
17814;SDS011;9031;50.974;11.330;2023-06-10T02:51:37;7.73;;;6.93;;
17814;SDS011;9031;50.974;11.330;2023-06-10T02:54:03;7.70;;;6.37;;
17814;SDS011;9031;50.974;11.330;2023-06-10T02:56:29;9.40;;;6.17;;
17814;SDS011;9031;50.974;11.330;2023-06-10T02:58:55;7.33;;;6.57;;
17814;SDS011;9031;50.974;11.330;2023-06-10T03:01:20;8.30;;;6.57;;
17814;SDS011;9031;50.974;11.330;2023-06-10T03:03:46;11.20;;;5.83;;
17814;SDS011;9031;50.974;11.330;2023-06-10T03:06:12;6.53;;;5.97;;
17814;SDS011;9031;50.974;11.330;2023-06-10T03:08:38;6.97;;;6.27;;
17814;SDS011;9031;50.974;11.330;2023-06-10T03:11:05;7.27;;;6.57;;
17814;SDS011;9031;50.974;11.330;2023-06-10T03:13:31;8.63;;;6.53;;
17814;SDS011;9031;50.974;11.330;2023-06-10T03:15:57;7.10;;;6.40;;
17814;SDS011;9031;50.974;11.330;2023-06-10T03:18:26;6.73;;;6.03;;
17814;SDS011;9031;50.974;11.330;2023-06-10T03:20:52;6.90;;;6.20;;
17814;SDS011;9031;50.974;11.330;2023-06-10T03:23:18;9.23;;;6.57;;
17814;SDS011;9031;50.974;11.330;2023-06-10T03:25:44;7.40;;;6.33;;
17814;SDS011;9031;50.974;11.330;2023-06-10T03:28:10;8.30;;;6.20;;
17814;SDS011;9031;50.974;11.330;2023-06-10T03:30:36;7.17;;;6.47;;
17814;SDS011;9031;50.974;11.330;2023-06-10T03:33:02;7.20;;;6.60;;
17814;SDS011;9031;50.974;11.330;2023-06-10T03:35:27;7.10;;;6.40;;
17814;SDS011;9031;50.974;11.330;2023-06-10T03:37:53;7.73;;;6.70;;
17814;SDS011;9031;50.974;11.330;2023-06-10T03:40:18;7.27;;;6.57;;
17814;SDS011;9031;50.974;11.330;2023-06-10T03:42:44;7.17;;;6.47;;
17814;SDS011;9031;50.974;11.330;2023-06-10T03:45:09;7.80;;;6.97;;
17814;SDS011;9031;50.974;11.330;2023-06-10T03:47:36;8.30;;;7.00;;
17814;SDS011;9031;50.974;11.330;2023-06-10T03:50:03;7.93;;;7.17;;
17814;SDS011;9031;50.974;11.330;2023-06-10T03:52:29;7.70;;;6.47;;
17814;SDS011;9031;50.974;11.330;2023-06-10T03:54:55;7.07;;;6.37;;
17814;SDS011;9031;50.974;11.330;2023-06-10T03:57:20;7.77;;;6.97;;
17814;SDS011;9031;50.974;11.330;2023-06-10T03:59:46;8.40;;;7.60;;
17814;SDS011;9031;50.974;11.330;2023-06-10T04:02:11;8.47;;;6.57;;
17814;SDS011;9031;50.974;11.330;2023-06-10T04:04:37;6.90;;;6.20;;
17814;SDS011;9031;50.974;11.330;2023-06-10T04:07:03;7.10;;;6.50;;
17814;SDS011;9031;50.974;11.330;2023-06-10T04:09:33;9.53;;;6.57;;
17814;SDS011;9031;50.974;11.330;2023-06-10T04:11:58;10.47;;;7.53;;
17814;SDS011;9031;50.974;11.330;2023-06-10T04:14:24;9.07;;;8.27;;
17814;SDS011;9031;50.974;11.330;2023-06-10T04:16:49;8.57;;;7.77;;
17814;SDS011;9031;50.974;11.330;2023-06-10T04:19:15;11.43;;;7.53;;
17814;SDS011;9031;50.974;11.330;2023-06-10T04:21:41;8.37;;;7.57;;
17814;SDS011;9031;50.974;11.330;2023-06-10T04:24:07;8.77;;;7.57;;
17814;SDS011;9031;50.974;11.330;2023-06-10T04:26:32;10.33;;;7.60;;
17814;SDS011;9031;50.974;11.330;2023-06-10T04:28:59;8.37;;;7.57;;
17814;SDS011;9031;50.974;11.330;2023-06-10T04:31:25;11.30;;;7.70;;
17814;SDS011;9031;50.974;11.330;2023-06-10T04:33:51;7.83;;;7.03;;
17814;SDS011;9031;50.974;11.330;2023-06-10T04:36:16;8.23;;;7.47;;
17814;SDS011;9031;50.974;11.330;2023-06-10T04:38:42;8.90;;;7.77;;
17814;SDS011;9031;50.974;11.330;2023-06-10T04:41:08;9.10;;;7.97;;
17814;SDS011;9031;50.974;11.330;2023-06-10T04:43:33;7.97;;;7.13;;
17814;SDS011;9031;50.974;11.330;2023-06-10T04:45:58;8.23;;;7.20;;
17814;SDS011;9031;50.974;11.330;2023-06-10T04:48:24;10.57;;;6.83;;
17814;SDS011;9031;50.974;11.330;2023-06-10T04:50:50;7.80;;;6.47;;
17814;SDS011;9031;50.974;11.330;2023-06-10T04:53:15;7.97;;;6.77;;
17814;SDS011;9031;50.974;11.330;2023-06-10T04:55:41;7.13;;;6.30;;
17814;SDS011;9031;50.974;11.330;2023-06-10T04:58:07;6.83;;;6.13;;
17814;SDS011;9031;50.974;11.330;2023-06-10T05:00:32;10.30;;;6.10;;
17814;SDS011;9031;50.974;11.330;2023-06-10T05:02:58;6.43;;;5.83;;
17814;SDS011;9031;50.974;11.330;2023-06-10T05:05:23;8.30;;;5.43;;
17814;SDS011;9031;50.974;11.330;2023-06-10T05:07:49;8.47;;;5.37;;
17814;SDS011;9031;50.974;11.330;2023-06-10T05:10:14;6.27;;;5.63;;
17814;SDS011;9031;50.974;11.330;2023-06-10T05:12:40;9.90;;;6.33;;
17814;SDS011;9031;50.974;11.330;2023-06-10T05:15:06;6.50;;;5.83;;
17814;SDS011;9031;50.974;11.330;2023-06-10T05:17:32;5.90;;;4.87;;
17814;SDS011;9031;50.974;11.330;2023-06-10T05:19:59;6.93;;;6.03;;
17814;SDS011;9031;50.974;11.330;2023-06-10T05:22:25;8.43;;;5.60;;
17814;SDS011;9031;50.974;11.330;2023-06-10T05:24:52;10.03;;;5.97;;
17814;SDS011;9031;50.974;11.330;2023-06-10T05:27:18;7.30;;;5.70;;
17814;SDS011;9031;50.974;11.330;2023-06-10T05:29:43;8.33;;;5.30;;
17814;SDS011;9031;50.974;11.330;2023-06-10T05:32:10;7.37;;;5.57;;
17814;SDS011;9031;50.974;11.330;2023-06-10T05:34:36;7.87;;;5.27;;
17814;SDS011;9031;50.974;11.330;2023-06-10T05:37:02;8.17;;;5.03;;
17814;SDS011;9031;50.974;11.330;2023-06-10T05:39:28;6.37;;;5.20;;
17814;SDS011;9031;50.974;11.330;2023-06-10T05:41:53;7.97;;;5.57;;
17814;SDS011;9031;50.974;11.330;2023-06-10T05:44:19;6.00;;;5.10;;
17814;SDS011;9031;50.974;11.330;2023-06-10T05:46:45;5.73;;;5.07;;
17814;SDS011;9031;50.974;11.330;2023-06-10T05:49:10;6.70;;;4.87;;
17814;SDS011;9031;50.974;11.330;2023-06-10T05:51:36;6.17;;;5.30;;
17814;SDS011;9031;50.974;11.330;2023-06-10T05:54:02;5.97;;;5.37;;
17814;SDS011;9031;50.974;11.330;2023-06-10T05:56:28;12.57;;;5.73;;
17814;SDS011;9031;50.974;11.330;2023-06-10T05:58:53;7.37;;;5.30;;
17814;SDS011;9031;50.974;11.330;2023-06-10T06:01:19;8.73;;;5.37;;
17814;SDS011;9031;50.974;11.330;2023-06-10T06:03:45;8.43;;;5.20;;
17814;SDS011;9031;50.974;11.330;2023-06-10T06:06:10;8.43;;;4.93;;
17814;SDS011;9031;50.974;11.330;2023-06-10T06:08:36;6.70;;;5.30;;
17814;SDS011;9031;50.974;11.330;2023-06-10T06:11:01;10.40;;;5.20;;
17814;SDS011;9031;50.974;11.330;2023-06-10T06:13:26;6.07;;;4.97;;
17814;SDS011;9031;50.974;11.330;2023-06-10T06:15:52;12.57;;;5.50;;
17814;SDS011;9031;50.974;11.330;2023-06-10T06:18:18;9.10;;;5.67;;
17814;SDS011;9031;50.974;11.330;2023-06-10T06:20:43;11.83;;;5.60;;
17814;SDS011;9031;50.974;11.330;2023-06-10T06:23:09;7.40;;;5.57;;
17814;SDS011;9031;50.974;11.330;2023-06-10T06:25:35;8.97;;;6.27;;
17814;SDS011;9031;50.974;11.330;2023-06-10T06:28:03;7.53;;;5.70;;
17814;SDS011;9031;50.974;11.330;2023-06-10T06:30:30;8.10;;;5.30;;
17814;SDS011;9031;50.974;11.330;2023-06-10T06:32:56;6.00;;;4.90;;
17814;SDS011;9031;50.974;11.330;2023-06-10T06:35:21;8.77;;;5.50;;
17814;SDS011;9031;50.974;11.330;2023-06-10T06:37:47;6.77;;;5.47;;
17814;SDS011;9031;50.974;11.330;2023-06-10T06:40:12;10.83;;;5.47;;
17814;SDS011;9031;50.974;11.330;2023-06-10T06:42:38;9.43;;;5.73;;
17814;SDS011;9031;50.974;11.330;2023-06-10T06:45:03;6.33;;;5.63;;
17814;SDS011;9031;50.974;11.330;2023-06-10T06:47:29;6.67;;;5.73;;
17814;SDS011;9031;50.974;11.330;2023-06-10T06:49:55;6.80;;;6.07;;
17814;SDS011;9031;50.974;11.330;2023-06-10T06:52:20;8.63;;;5.97;;
17814;SDS011;9031;50.974;11.330;2023-06-10T06:54:47;8.57;;;5.77;;
17814;SDS011;9031;50.974;11.330;2023-06-10T06:57:12;6.97;;;5.60;;
17814;SDS011;9031;50.974;11.330;2023-06-10T06:59:38;8.07;;;5.97;;
17814;SDS011;9031;50.974;11.330;2023-06-10T07:02:03;6.90;;;5.60;;
17814;SDS011;9031;50.974;11.330;2023-06-10T07:04:29;9.47;;;6.10;;
17814;SDS011;9031;50.974;11.330;2023-06-10T07:06:55;9.90;;;5.33;;
17814;SDS011;9031;50.974;11.330;2023-06-10T07:09:20;12.17;;;6.30;;
17814;SDS011;9031;50.974;11.330;2023-06-10T07:11:46;9.40;;;6.00;;
17814;SDS011;9031;50.974;11.330;2023-06-10T07:14:11;9.27;;;6.00;;
17814;SDS011;9031;50.974;11.330;2023-06-10T07:16:37;9.27;;;6.50;;
17814;SDS011;9031;50.974;11.330;2023-06-10T07:19:02;8.50;;;6.10;;
17814;SDS011;9031;50.974;11.330;2023-06-10T07:21:29;9.07;;;5.90;;
17814;SDS011;9031;50.974;11.330;2023-06-10T07:23:55;7.57;;;5.87;;
17814;SDS011;9031;50.974;11.330;2023-06-10T07:26:22;7.63;;;6.40;;
17814;SDS011;9031;50.974;11.330;2023-06-10T07:28:47;6.87;;;5.80;;
17814;SDS011;9031;50.974;11.330;2023-06-10T07:31:13;8.13;;;5.83;;
17814;SDS011;9031;50.974;11.330;2023-06-10T07:33:39;9.27;;;6.03;;
17814;SDS011;9031;50.974;11.330;2023-06-10T07:36:05;8.37;;;5.80;;
17814;SDS011;9031;50.974;11.330;2023-06-10T07:38:31;9.03;;;5.73;;
17814;SDS011;9031;50.974;11.330;2023-06-10T07:40:56;7.83;;;7.03;;
17814;SDS011;9031;50.974;11.330;2023-06-10T07:43:22;11.47;;;6.57;;
17814;SDS011;9031;50.974;11.330;2023-06-10T07:45:48;15.93;;;12.77;;
17814;SDS011;9031;50.974;11.330;2023-06-10T07:48:14;8.70;;;6.67;;
17814;SDS011;9031;50.974;11.330;2023-06-10T07:50:39;10.83;;;5.93;;
17814;SDS011;9031;50.974;11.330;2023-06-10T07:53:05;9.60;;;6.80;;
17814;SDS011;9031;50.974;11.330;2023-06-10T07:55:31;7.67;;;6.23;;
17814;SDS011;9031;50.974;11.330;2023-06-10T07:57:56;6.93;;;5.60;;
17814;SDS011;9031;50.974;11.330;2023-06-10T08:00:22;7.77;;;6.37;;
17814;SDS011;9031;50.974;11.330;2023-06-10T08:02:47;9.13;;;6.03;;
17814;SDS011;9031;50.974;11.330;2023-06-10T08:05:13;6.40;;;5.10;;
17814;SDS011;9031;50.974;11.330;2023-06-10T08:07:39;10.73;;;5.80;;
17814;SDS011;9031;50.974;11.330;2023-06-10T08:10:05;11.23;;;7.13;;
17814;SDS011;9031;50.974;11.330;2023-06-10T08:12:31;7.73;;;5.30;;
17814;SDS011;9031;50.974;11.330;2023-06-10T08:14:59;11.33;;;8.07;;
17814;SDS011;9031;50.974;11.330;2023-06-10T08:17:24;9.40;;;6.60;;
17814;SDS011;9031;50.974;11.330;2023-06-10T08:19:50;9.30;;;6.27;;
17814;SDS011;9031;50.974;11.330;2023-06-10T08:22:16;12.43;;;6.90;;
17814;SDS011;9031;50.974;11.330;2023-06-10T08:24:41;9.90;;;6.50;;
17814;SDS011;9031;50.974;11.330;2023-06-10T08:27:07;9.77;;;6.20;;
17814;SDS011;9031;50.974;11.330;2023-06-10T08:29:32;8.90;;;6.33;;
17814;SDS011;9031;50.974;11.330;2023-06-10T08:31:58;7.87;;;6.47;;
17814;SDS011;9031;50.974;11.330;2023-06-10T08:34:24;8.40;;;6.10;;
17814;SDS011;9031;50.974;11.330;2023-06-10T08:36:49;10.03;;;6.10;;
17814;SDS011;9031;50.974;11.330;2023-06-10T08:39:18;8.30;;;6.60;;
17814;SDS011;9031;50.974;11.330;2023-06-10T08:41:45;9.83;;;6.57;;
17814;SDS011;9031;50.974;11.330;2023-06-10T08:44:28;8.33;;;6.07;;
17814;SDS011;9031;50.974;11.330;2023-06-10T08:46:55;10.50;;;6.23;;
17814;SDS011;9031;50.974;11.330;2023-06-10T08:49:23;11.80;;;6.30;;
17814;SDS011;9031;50.974;11.330;2023-06-10T08:51:52;8.53;;;6.13;;
17814;SDS011;9031;50.974;11.330;2023-06-10T08:54:25;9.33;;;5.80;;
17814;SDS011;9031;50.974;11.330;2023-06-10T08:56:53;6.83;;;5.87;;
17814;SDS011;9031;50.974;11.330;2023-06-10T08:59:22;6.53;;;5.80;;
17814;SDS011;9031;50.974;11.330;2023-06-10T09:01:50;7.70;;;5.97;;
17814;SDS011;9031;50.974;11.330;2023-06-10T09:04:16;6.70;;;6.00;;
17814;SDS011;9031;50.974;11.330;2023-06-10T09:06:43;9.67;;;6.03;;
17814;SDS011;9031;50.974;11.330;2023-06-10T09:09:09;10.13;;;5.77;;
17814;SDS011;9031;50.974;11.330;2023-06-10T09:11:35;7.67;;;5.63;;
17814;SDS011;9031;50.974;11.330;2023-06-10T09:14:02;6.97;;;5.57;;
17814;SDS011;9031;50.974;11.330;2023-06-10T09:16:28;10.47;;;5.20;;
17814;SDS011;9031;50.974;11.330;2023-06-10T09:18:54;9.77;;;5.77;;
17814;SDS011;9031;50.974;11.330;2023-06-10T09:21:23;7.43;;;5.67;;
17814;SDS011;9031;50.974;11.330;2023-06-10T09:23:50;9.23;;;5.23;;
17814;SDS011;9031;50.974;11.330;2023-06-10T09:26:16;5.80;;;5.30;;
17814;SDS011;9031;50.974;11.330;2023-06-10T09:28:48;7.17;;;5.33;;
17814;SDS011;9031;50.974;11.330;2023-06-10T09:31:15;8.40;;;5.40;;
17814;SDS011;9031;50.974;11.330;2023-06-10T09:33:43;6.27;;;5.17;;
17814;SDS011;9031;50.974;11.330;2023-06-10T09:36:09;6.10;;;5.00;;
17814;SDS011;9031;50.974;11.330;2023-06-10T09:38:35;9.47;;;6.07;;
17814;SDS011;9031;50.974;11.330;2023-06-10T09:41:01;7.10;;;5.13;;
17814;SDS011;9031;50.974;11.330;2023-06-10T09:43:43;8.73;;;5.30;;
17814;SDS011;9031;50.974;11.330;2023-06-10T09:46:17;5.77;;;5.17;;
17814;SDS011;9031;50.974;11.330;2023-06-10T09:48:44;5.80;;;4.93;;
17814;SDS011;9031;50.974;11.330;2023-06-10T09:51:13;6.63;;;5.03;;
17814;SDS011;9031;50.974;11.330;2023-06-10T09:53:41;8.63;;;5.80;;
17814;SDS011;9031;50.974;11.330;2023-06-10T09:56:07;6.13;;;5.43;;
17814;SDS011;9031;50.974;11.330;2023-06-10T09:58:33;6.07;;;5.00;;
17814;SDS011;9031;50.974;11.330;2023-06-10T10:01:09;5.50;;;4.90;;
17814;SDS011;9031;50.974;11.330;2023-06-10T10:03:51;8.50;;;5.07;;
17814;SDS011;9031;50.974;11.330;2023-06-10T10:06:17;11.53;;;5.60;;
17814;SDS011;9031;50.974;11.330;2023-06-10T10:08:44;7.53;;;5.30;;
17814;SDS011;9031;50.974;11.330;2023-06-10T10:11:11;7.37;;;5.03;;
17814;SDS011;9031;50.974;11.330;2023-06-10T10:13:38;7.90;;;5.30;;
17814;SDS011;9031;50.974;11.330;2023-06-10T10:16:07;8.03;;;5.17;;
17814;SDS011;9031;50.974;11.330;2023-06-10T10:18:36;5.70;;;5.00;;
17814;SDS011;9031;50.974;11.330;2023-06-10T10:21:05;6.63;;;5.73;;
17814;SDS011;9031;50.974;11.330;2023-06-10T10:23:39;6.90;;;5.23;;
17814;SDS011;9031;50.974;11.330;2023-06-10T10:26:13;6.73;;;5.20;;
17814;SDS011;9031;50.974;11.330;2023-06-10T10:28:45;7.87;;;5.43;;
17814;SDS011;9031;50.974;11.330;2023-06-10T10:31:16;8.50;;;5.77;;
17814;SDS011;9031;50.974;11.330;2023-06-10T10:34:00;8.10;;;4.80;;
17814;SDS011;9031;50.974;11.330;2023-06-10T10:36:27;5.60;;;4.97;;
17814;SDS011;9031;50.974;11.330;2023-06-10T10:38:54;5.27;;;4.73;;
17814;SDS011;9031;50.974;11.330;2023-06-10T10:41:19;6.82;;;5.53;;
17814;SDS011;9031;50.974;11.330;2023-06-10T10:43:46;8.07;;;4.97;;
17814;SDS011;9031;50.974;11.330;2023-06-10T10:46:13;9.40;;;5.90;;
17814;SDS011;9031;50.974;11.330;2023-06-10T10:48:40;5.57;;;5.03;;
17814;SDS011;9031;50.974;11.330;2023-06-10T10:51:07;7.70;;;5.38;;
17814;SDS011;9031;50.974;11.330;2023-06-10T10:53:33;8.20;;;5.20;;
17814;SDS011;9031;50.974;11.330;2023-06-10T10:56:12;13.98;;;5.03;;
17814;SDS011;9031;50.974;11.330;2023-06-10T10:58:40;6.88;;;4.57;;
17814;SDS011;9031;50.974;11.330;2023-06-10T11:01:12;5.30;;;4.60;;
17814;SDS011;9031;50.974;11.330;2023-06-10T11:03:43;4.75;;;4.13;;
17814;SDS011;9031;50.974;11.330;2023-06-10T11:06:13;7.93;;;4.68;;
17814;SDS011;9031;50.974;11.330;2023-06-10T11:11:21;6.88;;;4.18;;
17814;SDS011;9031;50.974;11.330;2023-06-10T11:16:38;9.43;;;4.57;;
17814;SDS011;9031;50.974;11.330;2023-06-10T11:19:06;5.30;;;4.80;;
17814;SDS011;9031;50.974;11.330;2023-06-10T11:21:32;6.70;;;4.60;;
17814;SDS011;9031;50.974;11.330;2023-06-10T11:24:22;6.63;;;4.50;;
17814;SDS011;9031;50.974;11.330;2023-06-10T11:26:47;5.75;;;4.80;;
17814;SDS011;9031;50.974;11.330;2023-06-10T11:29:14;7.03;;;5.18;;
17814;SDS011;9031;50.974;11.330;2023-06-10T11:31:41;6.78;;;5.18;;
17814;SDS011;9031;50.974;11.330;2023-06-10T11:34:13;5.60;;;4.53;;
17814;SDS011;9031;50.974;11.330;2023-06-10T11:36:41;7.63;;;5.13;;
17814;SDS011;9031;50.974;11.330;2023-06-10T11:39:10;7.30;;;4.68;;
17814;SDS011;9031;50.974;11.330;2023-06-10T11:41:36;6.75;;;4.20;;
17814;SDS011;9031;50.974;11.330;2023-06-10T11:44:04;6.85;;;4.45;;
17814;SDS011;9031;50.974;11.330;2023-06-10T11:46:36;7.07;;;4.65;;
17814;SDS011;9031;50.974;11.330;2023-06-10T11:49:02;7.28;;;4.72;;
17814;SDS011;9031;50.974;11.330;2023-06-10T11:51:29;8.98;;;5.00;;
17814;SDS011;9031;50.974;11.330;2023-06-10T11:53:58;7.07;;;5.32;;
17814;SDS011;9031;50.974;11.330;2023-06-10T11:56:24;7.18;;;4.55;;
17814;SDS011;9031;50.974;11.330;2023-06-10T11:58:58;6.40;;;4.80;;
17814;SDS011;9031;50.974;11.330;2023-06-10T12:01:29;6.53;;;4.80;;
17814;SDS011;9031;50.974;11.330;2023-06-10T12:03:59;12.70;;;11.45;;
17814;SDS011;9031;50.974;11.330;2023-06-10T12:06:26;7.75;;;5.13;;
17814;SDS011;9031;50.974;11.330;2023-06-10T12:08:53;5.88;;;4.68;;
17814;SDS011;9031;50.974;11.330;2023-06-10T12:11:20;7.13;;;5.07;;
17814;SDS011;9031;50.974;11.330;2023-06-10T12:13:46;5.25;;;4.75;;
17814;SDS011;9031;50.974;11.330;2023-06-10T12:16:13;7.13;;;5.03;;
17814;SDS011;9031;50.974;11.330;2023-06-10T12:18:39;9.60;;;5.38;;
17814;SDS011;9031;50.974;11.330;2023-06-10T12:21:14;6.95;;;5.38;;
17814;SDS011;9031;50.974;11.330;2023-06-10T12:24:00;6.82;;;5.22;;
17814;SDS011;9031;50.974;11.330;2023-06-10T12:26:37;6.18;;;5.50;;
17814;SDS011;9031;50.974;11.330;2023-06-10T12:29:20;9.23;;;5.55;;
17814;SDS011;9031;50.974;11.330;2023-06-10T12:31:58;7.78;;;5.68;;
17814;SDS011;9031;50.974;11.330;2023-06-10T12:37:01;7.85;;;6.05;;
17814;SDS011;9031;50.974;11.330;2023-06-10T12:39:29;6.32;;;5.32;;
17814;SDS011;9031;50.974;11.330;2023-06-10T12:41:55;5.63;;;5.00;;
17814;SDS011;9031;50.974;11.330;2023-06-10T12:44:33;7.80;;;5.20;;
17814;SDS011;9031;50.974;11.330;2023-06-10T12:47:00;5.32;;;4.82;;
17814;SDS011;9031;50.974;11.330;2023-06-10T12:49:26;5.13;;;4.72;;
17814;SDS011;9031;50.974;11.330;2023-06-10T12:51:52;4.60;;;4.20;;
17814;SDS011;9031;50.974;11.330;2023-06-10T12:54:18;6.22;;;3.70;;
17814;SDS011;9031;50.974;11.330;2023-06-10T12:56:43;5.70;;;4.70;;
17814;SDS011;9031;50.974;11.330;2023-06-10T12:59:09;6.97;;;4.70;;
17814;SDS011;9031;50.974;11.330;2023-06-10T13:01:35;5.15;;;4.65;;
17814;SDS011;9031;50.974;11.330;2023-06-10T13:04:02;7.32;;;4.55;;
17814;SDS011;9031;50.974;11.330;2023-06-10T13:06:31;7.78;;;4.40;;
17814;SDS011;9031;50.974;11.330;2023-06-10T13:08:58;4.80;;;4.25;;
17814;SDS011;9031;50.974;11.330;2023-06-10T13:11:23;4.28;;;3.85;;
17814;SDS011;9031;50.974;11.330;2023-06-10T13:13:50;4.43;;;3.47;;
17814;SDS011;9031;50.974;11.330;2023-06-10T13:16:16;6.60;;;3.58;;
17814;SDS011;9031;50.974;11.330;2023-06-10T13:18:42;6.10;;;4.68;;
17814;SDS011;9031;50.974;11.330;2023-06-10T13:21:07;6.07;;;3.33;;
17814;SDS011;9031;50.974;11.330;2023-06-10T13:23:33;5.40;;;3.45;;
17814;SDS011;9031;50.974;11.330;2023-06-10T13:25:58;4.05;;;3.20;;
17814;SDS011;9031;50.974;11.330;2023-06-10T13:28:24;6.30;;;3.17;;
17814;SDS011;9031;50.974;11.330;2023-06-10T13:30:50;4.28;;;3.70;;
17814;SDS011;9031;50.974;11.330;2023-06-10T13:33:16;5.68;;;4.20;;
17814;SDS011;9031;50.974;11.330;2023-06-10T13:35:41;5.53;;;3.17;;
17814;SDS011;9031;50.974;11.330;2023-06-10T13:38:07;4.63;;;3.13;;
17814;SDS011;9031;50.974;11.330;2023-06-10T13:40:32;6.25;;;4.80;;
17814;SDS011;9031;50.974;11.330;2023-06-10T13:42:58;4.05;;;3.22;;
17814;SDS011;9031;50.974;11.330;2023-06-10T13:45:23;5.13;;;2.70;;
17814;SDS011;9031;50.974;11.330;2023-06-10T13:47:49;4.00;;;3.38;;
17814;SDS011;9031;50.974;11.330;2023-06-10T13:50:15;7.22;;;4.18;;
17814;SDS011;9031;50.974;11.330;2023-06-10T13:52:40;4.63;;;2.40;;
17814;SDS011;9031;50.974;11.330;2023-06-10T13:55:06;3.67;;;2.10;;
17814;SDS011;9031;50.974;11.330;2023-06-10T13:57:32;2.10;;;1.90;;
17814;SDS011;9031;50.974;11.330;2023-06-10T13:59:57;3.05;;;2.20;;
17814;SDS011;9031;50.974;11.330;2023-06-10T14:02:23;2.42;;;2.10;;
17814;SDS011;9031;50.974;11.330;2023-06-10T14:04:48;2.60;;;2.40;;
17814;SDS011;9031;50.974;11.330;2023-06-10T14:07:14;3.35;;;2.42;;
17814;SDS011;9031;50.974;11.330;2023-06-10T14:09:40;2.60;;;2.40;;
17814;SDS011;9031;50.974;11.330;2023-06-10T14:12:06;4.00;;;2.70;;
17814;SDS011;9031;50.974;11.330;2023-06-10T14:14:31;2.72;;;2.45;;
17814;SDS011;9031;50.974;11.330;2023-06-10T14:16:58;3.17;;;2.70;;
17814;SDS011;9031;50.974;11.330;2023-06-10T14:19:24;5.18;;;2.33;;
17814;SDS011;9031;50.974;11.330;2023-06-10T14:21:49;6.93;;;2.70;;
17814;SDS011;9031;50.974;11.330;2023-06-10T14:24:15;5.20;;;2.30;;
17814;SDS011;9031;50.974;11.330;2023-06-10T14:26:40;5.38;;;2.47;;
17814;SDS011;9031;50.974;11.330;2023-06-10T14:29:06;3.47;;;2.05;;
17814;SDS011;9031;50.974;11.330;2023-06-10T14:31:33;4.95;;;2.33;;
17814;SDS011;9031;50.974;11.330;2023-06-10T14:33:59;2.72;;;2.40;;
17814;SDS011;9031;50.974;11.330;2023-06-10T14:36:24;4.72;;;2.55;;
17814;SDS011;9031;50.974;11.330;2023-06-10T14:38:50;2.78;;;2.00;;
17814;SDS011;9031;50.974;11.330;2023-06-10T14:41:16;2.80;;;2.40;;
17814;SDS011;9031;50.974;11.330;2023-06-10T14:43:41;3.65;;;2.50;;
17814;SDS011;9031;50.974;11.330;2023-06-10T14:46:07;3.50;;;2.83;;
17814;SDS011;9031;50.974;11.330;2023-06-10T14:48:32;2.65;;;2.30;;
17814;SDS011;9031;50.974;11.330;2023-06-10T14:50:58;4.18;;;2.50;;
17814;SDS011;9031;50.974;11.330;2023-06-10T14:53:24;3.13;;;2.42;;
17814;SDS011;9031;50.974;11.330;2023-06-10T14:55:49;4.00;;;2.30;;
17814;SDS011;9031;50.974;11.330;2023-06-10T14:58:15;3.60;;;2.30;;